createdAt,value
2022-09-25T00:00:59.756Z,0.70
2022-09-25T00:03:28.544Z,0.77
2022-09-25T00:06:02.232Z,0.65
2022-09-25T00:08:29.125Z,1.08
2022-09-25T00:10:55.931Z,0.82
2022-09-25T00:13:22.632Z,0.70
2022-09-25T00:15:57.815Z,0.75
2022-09-25T00:18:43.858Z,0.60
2022-09-25T00:21:12.826Z,0.77
2022-09-25T00:23:41.177Z,0.88
2022-09-25T00:26:08.903Z,0.65
2022-09-25T00:28:36.602Z,0.80
2022-09-25T00:31:04.884Z,1.25
2022-09-25T00:33:35.560Z,3.08
2022-09-25T00:36:06.197Z,2.10
2022-09-25T00:38:34.298Z,1.50
2022-09-25T00:41:01.811Z,1.58
2022-09-25T00:43:37.795Z,1.35
2022-09-25T00:46:27.519Z,1.35
2022-09-25T00:49:09.855Z,0.65
2022-09-25T00:51:54.608Z,0.65
2022-09-25T00:54:30.328Z,1.10
2022-09-25T00:57:00.320Z,4.28
2022-09-25T00:59:31.158Z,2.42
2022-09-25T01:01:58.218Z,0.90
2022-09-25T01:04:28.714Z,1.27
2022-09-25T01:06:55.893Z,0.90
2022-09-25T01:09:23.091Z,1.08
2022-09-25T01:11:49.663Z,0.95
2022-09-25T01:14:17.353Z,0.95
2022-09-25T01:16:53.063Z,0.90
2022-09-25T01:19:43.163Z,0.95
2022-09-25T01:22:27.165Z,0.70
2022-09-25T01:25:14.960Z,0.80
2022-09-25T01:27:59.888Z,0.90
2022-09-25T01:30:26.854Z,0.75
2022-09-25T01:33:11.182Z,0.70
2022-09-25T01:36:02.670Z,0.70
2022-09-25T01:38:47.409Z,1.52
2022-09-25T01:41:26.290Z,1.23
2022-09-25T01:44:02.219Z,1.10
2022-09-25T01:46:34.529Z,0.93
2022-09-25T01:49:11.153Z,0.70
2022-09-25T01:51:42.101Z,0.93
2022-09-25T01:54:14.575Z,0.80
2022-09-25T01:57:19.169Z,0.68
2022-09-25T01:59:54.190Z,2.72
2022-09-25T02:02:29.780Z,1.30
2022-09-25T02:05:06.837Z,0.93
2022-09-25T02:07:41.174Z,1.25
2022-09-25T02:10:19.864Z,1.23
2022-09-25T02:12:52.050Z,0.88
2022-09-25T02:15:30.595Z,0.90
2022-09-25T02:18:20.006Z,1.00
2022-09-25T02:20:53.372Z,0.90
2022-09-25T02:23:25.469Z,1.00
2022-09-25T02:26:09.523Z,0.77
2022-09-25T02:28:36.664Z,1.00
2022-09-25T02:31:08.179Z,0.70
2022-09-25T02:33:35.228Z,0.73
2022-09-25T02:36:04.365Z,0.82
2022-09-25T02:38:33.571Z,0.70
2022-09-25T02:41:16.232Z,0.80
2022-09-25T02:43:51.863Z,1.00
2022-09-25T02:46:41.875Z,0.90
2022-09-25T02:49:29.370Z,2.25
2022-09-25T02:52:14.104Z,2.17
2022-09-25T02:54:56.642Z,2.78
2022-09-25T02:57:45.355Z,2.05
2022-09-25T03:00:13.389Z,1.67
2022-09-25T03:02:42.904Z,1.23
2022-09-25T03:05:14.251Z,1.20
2022-09-25T03:08:01.086Z,1.02
2022-09-25T03:10:29.166Z,1.38
2022-09-25T03:12:55.699Z,0.82
2022-09-25T03:15:23.812Z,1.00
2022-09-25T03:17:52.170Z,0.93
2022-09-25T03:20:18.740Z,0.88
2022-09-25T03:22:45.203Z,1.45
2022-09-25T03:25:11.754Z,1.13
2022-09-25T03:27:38.230Z,0.98
2022-09-25T03:30:06.090Z,0.68
2022-09-25T03:32:32.540Z,0.90
2022-09-25T03:34:59.026Z,1.00
2022-09-25T03:37:25.676Z,0.95
2022-09-25T03:39:52.132Z,0.93
2022-09-25T03:42:19.470Z,1.10
2022-09-25T03:44:46.370Z,0.90
2022-09-25T03:47:12.950Z,0.75
2022-09-25T03:49:39.408Z,0.98
2022-09-25T03:52:05.974Z,1.10
2022-09-25T03:54:32.488Z,0.82
2022-09-25T03:56:58.964Z,0.90
2022-09-25T03:59:25.488Z,0.70
2022-09-25T04:01:52.002Z,0.95
2022-09-25T04:04:18.493Z,0.68
2022-09-25T04:06:46.032Z,0.90
2022-09-25T04:09:12.545Z,0.82
2022-09-25T04:11:39.052Z,0.70
2022-09-25T04:14:05.784Z,0.90
2022-09-25T04:16:32.439Z,0.70
2022-09-25T04:18:58.927Z,0.80
2022-09-25T04:21:25.412Z,1.20
2022-09-25T04:24:10.520Z,1.40
2022-09-25T04:26:37.092Z,1.80
2022-09-25T04:29:03.938Z,2.25
2022-09-25T04:31:31.387Z,2.00
2022-09-25T04:33:58.057Z,2.63
2022-09-25T04:36:24.585Z,1.65
2022-09-25T04:38:51.121Z,1.77
2022-09-25T04:41:19.964Z,1.77
2022-09-25T04:43:47.262Z,1.40
2022-09-25T04:46:18.553Z,1.85
2022-09-25T04:48:48.125Z,2.08
2022-09-25T04:51:14.617Z,2.63
2022-09-25T04:53:41.440Z,2.15
2022-09-25T04:56:14.624Z,2.05
2022-09-25T04:58:49.853Z,1.67
2022-09-25T05:01:18.256Z,1.52
2022-09-25T05:03:48.917Z,1.52
2022-09-25T05:06:15.916Z,1.83
2022-09-25T05:08:42.391Z,1.40
2022-09-25T05:11:08.864Z,1.20
2022-09-25T05:13:35.330Z,1.48
2022-09-25T05:16:02.249Z,1.70
2022-09-25T05:18:28.768Z,1.60
2022-09-25T05:20:55.329Z,1.30
2022-09-25T05:23:22.204Z,1.90
2022-09-25T05:25:57.955Z,2.90
2022-09-25T05:28:24.799Z,1.70
2022-09-25T05:30:51.638Z,3.92
2022-09-25T05:33:19.057Z,3.33
2022-09-25T05:35:46.327Z,3.17
2022-09-25T05:38:12.850Z,2.45
2022-09-25T05:40:39.533Z,2.75
2022-09-25T05:43:07.042Z,2.17
2022-09-25T05:45:34.932Z,2.30
2022-09-25T05:48:07.197Z,1.85
2022-09-25T05:50:34.526Z,1.67
2022-09-25T05:53:03.661Z,2.03
2022-09-25T05:55:30.810Z,1.27
2022-09-25T05:58:01.961Z,1.80
2022-09-25T06:00:28.529Z,2.08
2022-09-25T06:02:55.064Z,1.05
2022-09-25T06:05:21.532Z,1.60
2022-09-25T06:07:52.731Z,5.82
2022-09-25T06:10:19.166Z,6.60
2022-09-25T06:12:45.600Z,5.10
2022-09-25T06:15:12.020Z,3.15
2022-09-25T06:17:38.449Z,3.28
2022-09-25T06:20:05.365Z,2.60
2022-09-25T06:22:32.161Z,3.08
2022-09-25T06:24:58.585Z,2.80
2022-09-25T06:27:25.118Z,3.38
2022-09-25T06:29:51.556Z,2.72
2022-09-25T06:32:18.098Z,2.38
2022-09-25T06:34:44.987Z,2.65
2022-09-25T06:37:11.442Z,2.00
2022-09-25T06:39:37.936Z,1.83
2022-09-25T06:42:04.699Z,1.88
2022-09-25T06:44:31.131Z,2.42
2022-09-25T06:46:57.574Z,2.00
2022-09-25T06:49:24.029Z,1.73
2022-09-25T06:51:51.222Z,2.80
2022-09-25T06:54:18.099Z,2.03
2022-09-25T06:56:49.239Z,1.83
2022-09-25T06:59:16.108Z,1.50
2022-09-25T07:01:42.626Z,1.58
2022-09-25T07:04:09.103Z,1.40
2022-09-25T07:06:37.273Z,1.35
2022-09-25T07:09:03.967Z,1.20
2022-09-25T07:11:31.360Z,1.50
2022-09-25T07:13:58.000Z,1.70
2022-09-25T07:16:27.299Z,1.60
2022-09-25T07:19:00.566Z,1.38
2022-09-25T07:21:29.403Z,1.33
2022-09-25T07:23:57.398Z,3.13
2022-09-25T07:26:26.652Z,2.55
2022-09-25T07:29:06.541Z,2.38
2022-09-25T07:31:35.102Z,2.53
2022-09-25T07:34:08.793Z,3.25
2022-09-25T07:36:38.444Z,2.25
2022-09-25T07:39:05.724Z,2.63
2022-09-25T07:41:32.774Z,1.63
2022-09-25T07:44:18.109Z,2.28
2022-09-25T07:46:46.362Z,2.10
2022-09-25T07:49:13.525Z,4.40
2022-09-25T07:51:40.047Z,3.03
2022-09-25T07:54:06.693Z,4.15
2022-09-25T07:56:34.546Z,3.22
2022-09-25T07:59:01.203Z,3.38
2022-09-25T08:01:27.894Z,2.30
2022-09-25T08:03:54.680Z,3.25
2022-09-25T08:06:21.148Z,2.38
2022-09-25T08:08:47.853Z,2.15
2022-09-25T08:11:17.093Z,2.45
2022-09-25T08:13:44.802Z,2.55
2022-09-25T08:16:13.967Z,2.88
2022-09-25T08:18:42.468Z,3.15
2022-09-25T08:21:10.554Z,4.43
2022-09-25T08:23:37.265Z,5.10
2022-09-25T08:26:03.775Z,4.78
2022-09-25T08:28:30.334Z,3.67
2022-09-25T08:31:01.604Z,2.45
2022-09-25T08:33:28.131Z,3.60
2022-09-25T08:35:59.999Z,3.03
2022-09-25T08:38:28.180Z,3.40
2022-09-25T08:41:06.981Z,2.80
2022-09-25T08:43:37.823Z,2.75
2022-09-25T08:46:33.272Z,1.70
2022-09-25T08:49:02.787Z,1.90
2022-09-25T08:51:31.413Z,1.50
2022-09-25T08:53:59.549Z,1.63
2022-09-25T08:56:29.320Z,2.55
2022-09-25T08:59:15.262Z,1.95
2022-09-25T09:01:49.947Z,2.22
2022-09-25T09:04:28.380Z,1.75
2022-09-25T09:07:26.386Z,1.60
2022-09-25T09:10:07.505Z,1.98
2022-09-25T09:12:42.482Z,1.35
2022-09-25T09:15:38.609Z,2.42
2022-09-25T09:18:41.730Z,3.30
2022-09-25T09:21:15.578Z,2.20
2022-09-25T09:24:13.578Z,1.50
2022-09-25T09:27:01.326Z,1.40
2022-09-25T09:29:49.640Z,1.95
2022-09-25T09:32:25.177Z,1.30
2022-09-25T09:35:13.508Z,1.00
2022-09-25T09:37:50.093Z,1.33
2022-09-25T09:40:43.374Z,1.50
2022-09-25T09:43:28.328Z,0.90
2022-09-25T09:46:26.438Z,1.23
2022-09-25T09:49:25.291Z,1.20
2022-09-25T09:51:59.191Z,1.00
2022-09-25T09:54:43.919Z,0.68
2022-09-25T09:57:19.264Z,0.77
2022-09-25T10:00:07.886Z,0.80
2022-09-25T10:02:59.962Z,1.13
2022-09-25T10:05:44.938Z,0.90
2022-09-25T10:08:11.902Z,1.10
2022-09-25T10:10:43.509Z,0.90
2022-09-25T10:13:22.185Z,1.13
2022-09-25T10:15:52.641Z,1.50
2022-09-25T10:18:22.641Z,2.55
2022-09-25T10:20:57.024Z,2.80
2022-09-25T10:23:59.526Z,2.13
2022-09-25T10:26:27.729Z,1.38
2022-09-25T10:28:56.839Z,1.50
2022-09-25T10:31:25.552Z,1.85
2022-09-25T10:34:00.313Z,1.60
2022-09-25T10:36:37.541Z,1.67
2022-09-25T10:39:42.830Z,1.88
2022-09-25T10:42:35.707Z,1.95
2022-09-25T10:45:36.103Z,1.55
2022-09-25T10:48:48.889Z,2.03
2022-09-25T10:51:21.137Z,1.23
2022-09-25T10:53:49.954Z,1.20
2022-09-25T10:56:22.355Z,1.00
2022-09-25T10:58:55.027Z,0.98
2022-09-25T11:01:31.539Z,1.37
2022-09-25T11:03:59.548Z,1.30
2022-09-25T11:06:29.397Z,1.20
2022-09-25T11:09:08.320Z,1.10
2022-09-25T11:11:36.610Z,1.10
2022-09-25T11:14:05.001Z,0.90
2022-09-25T11:16:47.595Z,0.93
2022-09-25T11:19:21.097Z,0.90
2022-09-25T11:22:00.046Z,0.63
2022-09-25T11:24:50.674Z,0.80
2022-09-25T11:27:20.184Z,0.63
2022-09-25T11:29:58.423Z,0.70
2022-09-25T11:32:42.730Z,0.90
2022-09-25T11:35:39.649Z,1.35
2022-09-25T11:38:52.644Z,1.35
2022-09-25T11:42:03.777Z,1.58
2022-09-25T11:44:32.183Z,1.83
2022-09-25T11:47:24.465Z,1.67
2022-09-25T11:49:54.690Z,1.42
2022-09-25T11:52:37.386Z,1.50
2022-09-25T11:55:43.518Z,1.40
2022-09-25T11:58:28.884Z,1.10
2022-09-25T12:01:16.828Z,1.33
2022-09-25T12:04:17.539Z,1.27
2022-09-25T12:07:09.978Z,1.25
2022-09-25T12:10:19.762Z,1.30
2022-09-25T12:12:59.368Z,1.50
2022-09-25T12:16:07.303Z,1.60
2022-09-25T12:19:01.174Z,1.70
2022-09-25T12:21:46.736Z,1.42
2022-09-25T12:24:34.941Z,2.00
2022-09-25T12:27:32.807Z,2.92
2022-09-25T12:30:16.404Z,2.05
2022-09-25T12:32:57.855Z,2.22
2022-09-25T12:35:46.358Z,2.60
2022-09-25T12:38:30.198Z,2.50
2022-09-25T12:41:09.453Z,2.17
2022-09-25T12:43:59.274Z,1.88
2022-09-25T12:46:31.758Z,1.60
2022-09-25T12:49:09.873Z,1.50
2022-09-25T12:51:47.145Z,1.77
2022-09-25T12:54:28.935Z,2.55
2022-09-25T12:56:58.884Z,2.40
2022-09-25T12:59:36.018Z,2.70
2022-09-25T13:02:21.876Z,1.77
2022-09-25T13:05:10.019Z,1.48
2022-09-25T13:07:45.880Z,1.40
2022-09-25T13:10:31.909Z,1.55
2022-09-25T13:13:02.871Z,2.03
2022-09-25T13:15:33.328Z,1.35
2022-09-25T13:18:00.191Z,1.70
2022-09-25T13:20:26.743Z,2.10
2022-09-25T13:22:58.767Z,1.55
2022-09-25T13:25:26.433Z,1.40
2022-09-25T13:27:54.181Z,1.30
2022-09-25T13:30:25.126Z,1.20
2022-09-25T13:33:03.240Z,1.42
2022-09-25T13:35:32.536Z,1.10
2022-09-25T13:38:49.749Z,1.05
2022-09-25T13:41:16.794Z,0.90
2022-09-25T13:43:44.240Z,0.93
2022-09-25T13:46:17.756Z,0.80
2022-09-25T13:48:44.560Z,0.88
2022-09-25T13:51:19.837Z,0.80
2022-09-25T13:54:10.459Z,0.85
2022-09-25T13:56:43.277Z,1.40
2022-09-25T13:59:13.828Z,1.30
2022-09-25T14:01:42.308Z,0.90
2022-09-25T14:04:36.087Z,1.23
2022-09-25T14:07:13.038Z,1.25
2022-09-25T14:09:44.554Z,1.00
2022-09-25T14:12:25.626Z,1.20
2022-09-25T14:15:07.499Z,0.93
2022-09-25T14:17:36.289Z,0.70
2022-09-25T14:20:07.459Z,1.70
2022-09-25T14:22:39.244Z,0.68
2022-09-25T14:25:23.920Z,1.63
2022-09-25T14:27:51.873Z,1.80
2022-09-25T14:30:18.869Z,1.98
2022-09-25T14:33:18.042Z,1.30
2022-09-25T14:36:00.032Z,1.05
2022-09-25T14:38:50.190Z,1.75
2022-09-25T14:41:47.922Z,1.42
2022-09-25T14:44:45.458Z,1.20
2022-09-25T14:47:15.114Z,0.95
2022-09-25T14:49:46.537Z,1.33
2022-09-25T14:52:21.827Z,0.88
2022-09-25T14:54:51.395Z,1.55
2022-09-25T14:57:25.694Z,1.08
2022-09-25T14:59:56.764Z,1.33
2022-09-25T15:02:33.851Z,0.73
2022-09-25T15:05:25.653Z,1.33
2022-09-25T15:07:53.399Z,1.10
2022-09-25T15:10:30.552Z,0.70
2022-09-25T15:13:13.388Z,0.75
2022-09-25T15:15:40.535Z,0.90
2022-09-25T15:18:12.827Z,0.73
2022-09-25T15:20:47.119Z,0.85
2022-09-25T15:23:18.714Z,0.70
2022-09-25T15:25:52.607Z,0.88
2022-09-25T15:28:23.115Z,1.77
2022-09-25T15:31:00.393Z,0.85
2022-09-25T15:33:37.773Z,1.02
2022-09-25T15:36:17.480Z,1.10
2022-09-25T15:38:44.527Z,1.20
2022-09-25T15:41:17.604Z,2.33
2022-09-25T15:43:44.238Z,1.27
2022-09-25T15:46:10.842Z,0.75
2022-09-25T15:48:41.529Z,2.40
2022-09-25T15:51:19.533Z,2.65
2022-09-25T15:53:55.495Z,2.30
2022-09-25T15:56:29.382Z,1.50
2022-09-25T15:59:00.988Z,2.15
2022-09-25T16:01:48.592Z,3.10
2022-09-25T16:04:38.964Z,1.50
2022-09-25T16:07:26.614Z,1.30
2022-09-25T16:10:16.504Z,1.13
2022-09-25T16:12:49.233Z,1.83
2022-09-25T16:15:27.803Z,1.55
2022-09-25T16:18:05.735Z,4.28
2022-09-25T16:20:40.551Z,1.40
2022-09-25T16:23:23.471Z,1.48
2022-09-25T16:25:49.987Z,1.20
2022-09-25T16:28:25.148Z,1.80
2022-09-25T16:31:04.958Z,2.78
2022-09-25T16:33:34.816Z,1.70
2022-09-25T16:36:14.594Z,2.75
2022-09-25T16:39:03.626Z,1.40
2022-09-25T16:41:30.647Z,1.65
2022-09-25T16:44:14.371Z,1.70
2022-09-25T16:46:47.654Z,1.67
2022-09-25T16:49:14.307Z,2.33
2022-09-25T16:51:45.793Z,2.70
2022-09-25T16:54:17.701Z,1.52
2022-09-25T16:56:46.310Z,2.05
2022-09-25T16:59:21.696Z,1.95
2022-09-25T17:01:51.670Z,1.77
2022-09-25T17:04:22.461Z,2.53
2022-09-25T17:06:48.937Z,1.70
2022-09-25T17:09:16.781Z,1.40
2022-09-25T17:11:45.937Z,3.10
2022-09-25T17:14:25.429Z,1.40
2022-09-25T17:16:54.012Z,2.17
2022-09-25T17:19:21.289Z,1.33
2022-09-25T17:21:52.977Z,2.15
2022-09-25T17:24:23.141Z,1.80
2022-09-25T17:26:51.631Z,1.65
2022-09-25T17:29:19.434Z,1.90
2022-09-25T17:31:46.094Z,2.00
2022-09-25T17:34:24.449Z,1.60
2022-09-25T17:36:51.796Z,2.55
2022-09-25T17:39:18.280Z,1.63
2022-09-25T17:41:44.805Z,2.15
2022-09-25T17:44:15.655Z,2.85
2022-09-25T17:46:42.413Z,2.67
2022-09-25T17:49:09.038Z,2.08
2022-09-25T17:51:35.751Z,2.13
2022-09-25T17:54:02.684Z,4.32
2022-09-25T17:56:34.050Z,5.25
2022-09-25T17:59:02.332Z,4.20
2022-09-25T18:01:34.256Z,4.10
2022-09-25T18:04:21.479Z,2.67
2022-09-25T18:06:48.673Z,2.17
2022-09-25T18:09:15.661Z,2.40
2022-09-25T18:11:44.023Z,2.08
2022-09-25T18:14:12.357Z,1.40
2022-09-25T18:16:41.355Z,1.60
2022-09-25T18:19:33.953Z,1.30
2022-09-25T18:22:19.406Z,1.85
2022-09-25T18:24:52.667Z,1.30
2022-09-25T18:27:20.218Z,1.77
2022-09-25T18:29:47.243Z,1.55
2022-09-25T18:32:14.211Z,1.35
2022-09-25T18:34:41.866Z,2.38
2022-09-25T18:37:08.544Z,2.08
2022-09-25T18:39:35.041Z,2.17
2022-09-25T18:42:01.708Z,1.50
2022-09-25T18:44:28.848Z,1.50
2022-09-25T18:46:55.679Z,1.10
2022-09-25T18:49:24.650Z,1.50
2022-09-25T18:51:51.146Z,1.63
2022-09-25T18:54:17.712Z,1.48
2022-09-25T18:56:44.639Z,1.30
2022-09-25T18:59:11.394Z,1.58
2022-09-25T19:01:39.347Z,2.17
2022-09-25T19:04:06.594Z,1.80
2022-09-25T19:06:33.501Z,2.38
2022-09-25T19:09:01.227Z,2.40
2022-09-25T19:11:28.401Z,1.85
2022-09-25T19:13:55.859Z,1.80
2022-09-25T19:16:22.934Z,2.05
2022-09-25T19:18:52.217Z,1.92
2022-09-25T19:21:22.856Z,1.63
2022-09-25T19:23:50.020Z,1.45
2022-09-25T19:26:22.304Z,1.20
2022-09-25T19:28:49.243Z,1.42
2022-09-25T19:31:18.770Z,1.55
2022-09-25T19:33:46.302Z,1.70
2022-09-25T19:36:16.834Z,1.40
2022-09-25T19:38:43.603Z,1.45
2022-09-25T19:41:15.611Z,1.48
2022-09-25T19:43:42.422Z,1.40
2022-09-25T19:46:11.816Z,0.90
2022-09-25T19:48:38.392Z,1.10
2022-09-25T19:51:08.941Z,1.90
2022-09-25T19:53:36.449Z,1.65
2022-09-25T19:56:03.729Z,1.65
2022-09-25T19:58:31.869Z,1.48
2022-09-25T20:00:58.578Z,1.50
2022-09-25T20:03:25.180Z,2.08
2022-09-25T20:05:51.856Z,1.73
2022-09-25T20:08:19.241Z,1.58
2022-09-25T20:10:45.902Z,2.15
2022-09-25T20:13:13.537Z,1.55
2022-09-25T20:15:41.431Z,1.42
2022-09-25T20:18:08.123Z,1.40
2022-09-25T20:20:34.634Z,1.15
2022-09-25T20:23:01.183Z,1.70
2022-09-25T20:25:28.063Z,1.80
2022-09-25T20:27:55.034Z,0.90
2022-09-25T20:30:23.998Z,1.65
2022-09-25T20:32:50.756Z,1.17
2022-09-25T20:35:17.365Z,0.90
2022-09-25T20:37:46.542Z,1.50
2022-09-25T20:40:14.710Z,1.55
2022-09-25T20:42:42.121Z,1.25
2022-09-25T20:45:10.342Z,1.50
2022-09-25T20:47:45.160Z,0.80
2022-09-25T20:50:13.013Z,0.73
2022-09-25T20:52:40.084Z,0.93
2022-09-25T20:55:07.083Z,2.15
2022-09-25T20:57:33.605Z,0.93
2022-09-25T21:00:01.937Z,2.25
2022-09-25T21:02:29.109Z,0.82
2022-09-25T21:04:56.772Z,0.85
2022-09-25T21:07:25.489Z,1.42
2022-09-25T21:09:53.240Z,0.90
2022-09-25T21:12:21.486Z,1.20
2022-09-25T21:14:48.605Z,1.55
2022-09-25T21:17:15.342Z,1.20
2022-09-25T21:19:41.926Z,1.20
2022-09-25T21:22:08.494Z,1.10
2022-09-25T21:24:35.792Z,0.88
2022-09-25T21:27:02.341Z,1.40
2022-09-25T21:29:29.177Z,0.80
2022-09-25T21:31:56.474Z,1.17
2022-09-25T21:34:22.991Z,1.00
2022-09-25T21:36:49.519Z,1.20
2022-09-25T21:39:16.454Z,1.50
2022-09-25T21:41:43.251Z,2.55
2022-09-25T21:44:13.557Z,1.35
2022-09-25T21:46:40.826Z,0.70
2022-09-25T21:49:08.380Z,1.02
2022-09-25T21:51:43.226Z,1.00
2022-09-25T21:54:11.589Z,0.90
2022-09-25T21:56:38.579Z,0.80
2022-09-25T21:59:08.730Z,0.70
2022-09-25T22:01:38.432Z,1.13
2022-09-25T22:04:06.459Z,0.60
2022-09-25T22:06:35.366Z,0.77
2022-09-25T22:09:09.500Z,0.95
2022-09-25T22:11:37.296Z,0.82
2022-09-25T22:14:04.745Z,0.73
2022-09-25T22:16:33.209Z,1.77
2022-09-25T22:19:20.942Z,1.20
2022-09-25T22:21:49.328Z,0.90
2022-09-25T22:24:16.192Z,1.00
2022-09-25T22:26:45.728Z,0.70
2022-09-25T22:29:12.970Z,0.82
2022-09-25T22:31:43.126Z,0.82
2022-09-25T22:34:24.662Z,0.95
2022-09-25T22:36:57.781Z,1.05
2022-09-25T22:39:25.380Z,0.60
2022-09-25T22:41:53.349Z,0.98
2022-09-25T22:44:20.789Z,0.90
2022-09-25T22:46:47.709Z,0.80
2022-09-25T22:49:14.370Z,1.13
2022-09-25T22:51:41.347Z,0.90
2022-09-25T22:54:07.864Z,0.85
2022-09-25T22:56:35.709Z,0.82
2022-09-25T22:59:06.789Z,1.70
2022-09-25T23:01:40.484Z,1.95
2022-09-25T23:04:10.380Z,1.83
2022-09-25T23:06:37.805Z,1.02
2022-09-25T23:09:10.982Z,1.17
2022-09-25T23:11:37.820Z,1.13
2022-09-25T23:14:07.622Z,0.90
2022-09-25T23:16:35.159Z,0.85
2022-09-25T23:19:02.025Z,1.10
2022-09-25T23:21:29.929Z,0.80
2022-09-25T23:24:01.750Z,0.93
2022-09-25T23:26:29.219Z,0.82
2022-09-25T23:28:57.452Z,0.70
2022-09-25T23:31:24.468Z,0.95
2022-09-25T23:33:51.062Z,1.17
2022-09-25T23:36:20.285Z,1.23
2022-09-25T23:38:48.737Z,1.20
2022-09-25T23:41:20.502Z,0.95
2022-09-25T23:43:48.348Z,1.02
2022-09-25T23:46:16.468Z,1.10
2022-09-25T23:48:44.036Z,1.25
2022-09-25T23:51:12.108Z,1.08
2022-09-25T23:53:39.182Z,0.82
2022-09-25T23:56:27.540Z,1.30
2022-09-25T23:58:56.193Z,0.98
